Time;durP1;ratioP1;P1;durP2;ratioP2;P2;SDS_P1;SDS_P2;PMS_P1;PMS_P2;Temp;Humidity;BMP_temperature;BMP_pressure;BME280_temperature;BME280_humidity;BME280_pressure;Samples;Min_cycle;Max_cycle;Signal;HPM_P1;HPM_P2
2021/01/17 00:00:17;;;;;;;15.95;10.85;;;2.20;99.90;;;;;;6184968;23;20619;-78
2021/01/17 00:02:44;;;;;;;14.30;11.35;;;2.20;99.90;;;;;;6212004;23;20200;-78
2021/01/17 00:05:11;;;;;;;14.65;11.35;;;2.20;99.90;;;;;;6160586;23;20173;-78
2021/01/17 00:07:37;;;;;;;17.52;12.98;;;2.30;99.90;;;;;;6211574;23;20145;-78
2021/01/17 00:10:09;;;;;;;15.60;11.80;;;2.30;99.90;;;;;;6185478;23;20161;-77
2021/01/17 00:12:36;;;;;;;17.88;13.75;;;2.30;99.90;;;;;;6212664;23;20208;-78
2021/01/17 00:15:05;;;;;;;17.67;12.65;;;2.30;99.90;;;;;;6190104;23;20547;-78
2021/01/17 00:17:30;;;;;;;16.98;11.10;;;2.20;99.90;;;;;;6185760;23;20177;-78
2021/01/17 00:19:56;;;;;;;20.50;12.40;;;2.20;99.90;;;;;;6211891;23;20232;-78
2021/01/17 00:22:22;;;;;;;14.00;10.50;;;2.20;99.90;;;;;;6185548;23;20591;-78
2021/01/17 00:24:49;;;;;;;17.00;13.23;;;2.20;99.90;;;;;;6185496;23;20482;-79
2021/01/17 00:27:15;;;;;;;15.52;11.13;;;2.20;99.90;;;;;;6184809;23;20147;-78
2021/01/17 00:29:42;;;;;;;14.68;10.65;;;2.20;99.90;;;;;;6212048;23;20527;-78
2021/01/17 00:32:11;;;;;;;11.88;8.90;;;2.20;99.90;;;;;;6211677;23;20496;-78
2021/01/17 00:34:39;;;;;;;14.10;9.85;;;2.20;99.90;;;;;;6211702;23;20149;-78
2021/01/17 00:37:05;;;;;;;14.93;11.48;;;2.20;99.90;;;;;;6185290;23;20517;-78
2021/01/17 00:39:31;;;;;;;15.85;10.40;;;2.30;99.90;;;;;;6185541;23;20168;-78
2021/01/17 00:41:57;;;;;;;18.10;11.63;;;2.20;99.90;;;;;;6211475;23;20595;-78
2021/01/17 00:44:23;;;;;;;15.60;11.32;;;2.30;99.90;;;;;;6211927;23;20560;-78
2021/01/17 00:46:49;;;;;;;17.05;13.07;;;2.20;99.90;;;;;;6211973;23;20540;-78
2021/01/17 00:49:15;;;;;;;16.20;12.40;;;2.20;99.90;;;;;;6159986;23;20184;-78
2021/01/17 00:51:45;;;;;;;15.48;12.13;;;2.20;99.90;;;;;;6189383;23;20982;-78
2021/01/17 00:54:13;;;;;;;18.95;14.20;;;2.10;99.90;;;;;;6185477;23;20583;-78
2021/01/17 00:56:39;;;;;;;17.08;12.48;;;2.10;99.90;;;;;;6185549;23;20232;-78
2021/01/17 00:59:09;;;;;;;19.77;14.20;;;2.10;99.90;;;;;;6184688;23;20165;-78
2021/01/17 01:01:46;;;;;;;21.77;14.25;;;2.10;99.90;;;;;;6160389;23;20587;-78
2021/01/17 01:04:16;;;;;;;18.40;12.75;;;2.10;99.90;;;;;;6185250;23;20136;-78
2021/01/17 01:06:43;;;;;;;15.32;10.93;;;2.00;99.90;;;;;;6212003;23;20611;-77
2021/01/17 01:09:11;;;;;;;16.00;10.95;;;2.10;99.90;;;;;;6211041;23;20184;-77
2021/01/17 01:11:38;;;;;;;16.40;11.45;;;2.10;99.90;;;;;;6211733;23;20152;-77
2021/01/17 01:14:05;;;;;;;14.20;11.15;;;2.10;99.90;;;;;;6185327;23;20160;-78
2021/01/17 01:16:31;;;;;;;16.42;11.85;;;2.10;99.90;;;;;;6211904;23;20568;-78
2021/01/17 01:18:58;;;;;;;16.47;10.90;;;2.10;99.90;;;;;;6210792;23;20211;-78
2021/01/17 01:21:31;;;;;;;12.35;9.38;;;2.10;99.90;;;;;;6211408;23;20492;-77
2021/01/17 01:23:58;;;;;;;16.83;11.50;;;2.10;99.90;;;;;;6211908;23;20587;-78
2021/01/17 01:26:25;;;;;;;15.23;11.65;;;2.10;99.90;;;;;;6211987;23;20188;-78
2021/01/17 01:28:55;;;;;;;17.40;12.88;;;2.20;99.90;;;;;;6187941;23;20165;-77
2021/01/17 01:31:25;;;;;;;16.05;11.35;;;2.20;99.90;;;;;;6211370;23;20169;-78
2021/01/17 01:33:52;;;;;;;14.50;10.45;;;2.20;99.90;;;;;;6185009;23;20169;-78
2021/01/17 01:36:22;;;;;;;12.30;10.27;;;2.20;99.90;;;;;;6211633;23;20152;-78
2021/01/17 01:38:49;;;;;;;17.70;12.63;;;2.20;99.90;;;;;;6159936;23;20173;-78
2021/01/17 01:41:16;;;;;;;15.90;11.25;;;2.20;99.90;;;;;;6184978;23;20145;-77
2021/01/17 01:43:43;;;;;;;16.83;13.68;;;2.10;99.90;;;;;;6211536;23;20830;-78
2021/01/17 01:46:13;;;;;;;16.58;12.98;;;2.20;99.90;;;;;;6211342;23;20179;-78
2021/01/17 01:48:40;;;;;;;20.08;13.30;;;2.20;99.90;;;;;;6184504;23;20195;-78
2021/01/17 01:51:06;;;;;;;20.02;13.93;;;2.10;99.90;;;;;;6184721;23;20153;-78
2021/01/17 01:53:32;;;;;;;19.57;13.97;;;2.10;99.90;;;;;;6185078;23;20149;-77
2021/01/17 01:55:59;;;;;;;16.10;11.60;;;2.10;99.90;;;;;;6213580;23;20540;-78
2021/01/17 01:58:27;;;;;;;16.92;11.93;;;2.10;99.90;;;;;;6212808;23;20594;-77
2021/01/17 02:00:54;;;;;;;19.58;13.32;;;2.10;99.90;;;;;;6212864;23;20165;-78
2021/01/17 02:03:20;;;;;;;17.08;12.55;;;2.10;99.90;;;;;;6186703;23;20191;-78
2021/01/17 02:05:47;;;;;;;16.60;13.30;;;2.10;99.90;;;;;;6165922;23;20239;-78
2021/01/17 02:09:04;;;;;;;18.05;12.80;;;2.10;99.90;;;;;;6212856;23;20531;-78
2021/01/17 02:11:58;;;;;;;16.20;13.07;;;2.10;99.90;;;;;;6149248;23;20307;-78
2021/01/17 02:14:36;;;;;;;16.02;11.52;;;2.10;99.90;;;;;;6213309;23;20137;-78
2021/01/17 02:17:06;;;;;;;16.58;11.95;;;2.10;99.90;;;;;;6186584;23;20522;-78
2021/01/17 02:19:37;;;;;;;17.40;10.80;;;2.10;99.90;;;;;;6213891;23;20303;-84
2021/01/17 02:22:05;;;;;;;17.52;12.50;;;2.10;99.90;;;;;;6165791;23;20141;-83
2021/01/17 02:24:33;;;;;;;17.38;13.38;;;2.10;99.90;;;;;;6192111;23;20181;-83
2021/01/17 02:27:01;;;;;;;14.45;10.85;;;2.10;99.90;;;;;;6139309;23;20160;-83
2021/01/17 02:29:28;;;;;;;20.77;14.00;;;2.20;99.90;;;;;;6212666;23;20173;-83
2021/01/17 02:32:01;;;;;;;19.23;11.80;;;2.20;99.90;;;;;;6187413;23;20145;-83
2021/01/17 02:34:29;;;;;;;18.67;13.10;;;2.20;99.90;;;;;;6188189;23;20216;-83
2021/01/17 02:37:14;;;;;;;16.63;12.68;;;2.20;99.90;;;;;;6214999;23;20552;-83
2021/01/17 02:40:06;;;;;;;17.73;12.23;;;2.20;99.90;;;;;;6162902;23;20176;-83
2021/01/17 02:42:33;;;;;;;20.60;14.23;;;2.20;99.90;;;;;;6168979;23;20142;-84
2021/01/17 02:44:59;;;;;;;19.20;12.27;;;2.20;99.90;;;;;;6190249;23;20172;-84
2021/01/17 02:47:26;;;;;;;20.65;13.38;;;2.20;99.90;;;;;;6216379;23;20175;-84
2021/01/17 02:49:52;;;;;;;19.38;15.18;;;2.20;99.90;;;;;;6190246;23;20231;-84
2021/01/17 02:52:28;;;;;;;17.77;12.75;;;2.20;99.90;;;;;;6190595;23;20145;-84
2021/01/17 02:54:54;;;;;;;17.13;11.32;;;2.20;99.90;;;;;;6193738;23;20149;-85
2021/01/17 02:57:25;;;;;;;17.70;12.53;;;2.20;99.90;;;;;;6215318;23;20145;-84
2021/01/17 02:59:55;;;;;;;16.67;11.63;;;2.20;99.90;;;;;;6187250;23;20632;-84
2021/01/17 03:02:27;;;;;;;17.90;11.90;;;2.30;99.90;;;;;;6187773;23;20161;-85
2021/01/17 03:05:02;;;;;;;17.95;12.70;;;2.30;99.90;;;;;;6217315;23;20162;-84
2021/01/17 03:07:31;;;;;;;12.75;9.82;;;2.40;99.90;;;;;;6216208;23;20191;-84
2021/01/17 03:09:57;;;;;;;15.45;11.20;;;2.40;99.90;;;;;;6224128;23;20204;-84
2021/01/17 03:12:23;;;;;;;17.13;12.48;;;2.40;99.90;;;;;;6200877;23;20201;-84
2021/01/17 03:14:51;;;;;;;16.23;11.77;;;2.40;99.90;;;;;;6179082;23;20200;-83
2021/01/17 03:17:17;;;;;;;15.38;11.82;;;2.40;99.90;;;;;;6220611;23;20532;-83
2021/01/17 03:19:43;;;;;;;14.13;10.68;;;2.40;99.90;;;;;;6221435;23;20208;-84
2021/01/17 03:22:09;;;;;;;16.93;12.13;;;2.40;99.90;;;;;;6191714;23;20699;-83
2021/01/17 03:24:35;;;;;;;14.38;10.38;;;2.50;99.90;;;;;;6191204;23;20528;-84
2021/01/17 03:27:00;;;;;;;19.97;13.53;;;2.50;99.90;;;;;;6221717;23;20141;-83
2021/01/17 03:29:28;;;;;;;19.92;13.38;;;2.50;99.90;;;;;;6221320;23;20161;-84
2021/01/17 03:31:54;;;;;;;22.63;15.63;;;2.50;99.90;;;;;;6170688;23;20149;-84
2021/01/17 03:34:20;;;;;;;20.57;14.03;;;2.50;99.90;;;;;;6173764;23;20535;-83
2021/01/17 03:36:46;;;;;;;19.50;13.70;;;2.50;99.90;;;;;;6196316;23;20153;-83
2021/01/17 03:39:11;;;;;;;14.23;11.90;;;2.40;99.90;;;;;;6194606;23;20573;-83
2021/01/17 03:41:37;;;;;;;17.10;12.13;;;2.50;99.90;;;;;;6220014;23;20865;-83
2021/01/17 03:44:04;;;;;;;20.80;13.47;;;2.50;99.90;;;;;;6168235;23;20548;-83
2021/01/17 03:46:31;;;;;;;15.77;11.70;;;2.50;99.90;;;;;;6169599;23;20981;-83
2021/01/17 03:48:57;;;;;;;21.67;15.13;;;2.50;99.90;;;;;;6187379;23;20161;-83
2021/01/17 03:51:23;;;;;;;19.55;11.98;;;2.50;99.90;;;;;;6143589;23;20156;-84
2021/01/17 03:53:49;;;;;;;20.37;15.33;;;2.50;99.90;;;;;;6215977;23;20141;-84
2021/01/17 03:56:15;;;;;;;20.65;14.73;;;2.50;99.90;;;;;;6166636;23;20563;-84
2021/01/17 03:58:41;;;;;;;18.40;13.50;;;2.50;99.90;;;;;;6165373;23;20149;-84
2021/01/17 04:01:06;;;;;;;15.30;12.30;;;2.60;99.90;;;;;;6189113;23;20524;-84
2021/01/17 04:03:32;;;;;;;17.53;12.90;;;2.60;99.90;;;;;;6189376;23;20529;-84
2021/01/17 04:05:58;;;;;;;22.00;14.90;;;2.70;99.90;;;;;;6212948;23;20580;-85
2021/01/17 04:08:24;;;;;;;20.37;14.20;;;2.60;99.90;;;;;;6190263;23;20750;-84
2021/01/17 04:10:50;;;;;;;17.07;12.33;;;2.70;99.90;;;;;;6192038;23;21109;-83
2021/01/17 04:13:18;;;;;;;15.10;11.43;;;2.60;99.90;;;;;;6191633;23;20525;-84
2021/01/17 04:15:45;;;;;;;18.05;13.15;;;2.70;99.90;;;;;;6188614;23;20207;-83
2021/01/17 04:18:10;;;;;;;17.30;13.30;;;2.60;99.90;;;;;;6185471;23;20149;-82
2021/01/17 04:20:37;;;;;;;16.80;12.07;;;2.60;99.90;;;;;;6185842;23;20603;-83
2021/01/17 04:23:06;;;;;;;18.92;12.93;;;2.60;99.90;;;;;;6168440;23;20858;-84
2021/01/17 04:25:32;;;;;;;18.67;13.02;;;2.60;99.90;;;;;;6219146;23;20227;-84
2021/01/17 04:27:59;;;;;;;16.40;12.65;;;2.60;99.90;;;;;;6219504;23;20157;-84
2021/01/17 04:30:30;;;;;;;17.20;13.48;;;2.60;99.90;;;;;;6215582;23;20176;-83
2021/01/17 04:32:56;;;;;;;18.42;12.50;;;2.60;99.90;;;;;;6190502;23;20159;-84
2021/01/17 04:35:22;;;;;;;13.80;9.82;;;2.60;99.90;;;;;;6213811;23;20160;-83
2021/01/17 04:37:48;;;;;;;21.33;14.25;;;2.70;99.90;;;;;;6187900;23;20240;-83
2021/01/17 04:40:14;;;;;;;22.50;14.73;;;2.70;99.90;;;;;;6189082;23;20165;-83
2021/01/17 04:42:44;;;;;;;17.15;12.43;;;2.70;99.90;;;;;;6190484;23;20157;-84
2021/01/17 04:45:11;;;;;;;22.60;17.38;;;2.70;99.90;;;;;;6189638;23;20718;-84
2021/01/17 04:47:39;;;;;;;19.70;14.93;;;2.70;99.90;;;;;;6190930;23;20144;-84
2021/01/17 04:50:07;;;;;;;21.42;15.88;;;2.70;99.90;;;;;;6190727;23;20176;-84
2021/01/17 04:52:58;;;;;;;17.13;13.70;;;2.70;99.90;;;;;;6214046;23;20483;-83
2021/01/17 04:55:25;;;;;;;20.70;15.30;;;2.70;99.90;;;;;;6187679;23;20160;-84
2021/01/17 04:58:05;;;;;;;22.60;15.10;;;2.70;99.90;;;;;;6190238;23;20209;-84
2021/01/17 05:00:32;;;;;;;20.65;13.02;;;2.70;99.90;;;;;;6216395;23;20498;-84
2021/01/17 05:03:23;;;;;;;18.25;12.30;;;2.70;99.90;;;;;;6173274;23;20611;-84
2021/01/17 05:06:14;;;;;;;17.80;12.38;;;2.70;99.90;;;;;;6174137;23;20835;-84
2021/01/17 05:08:44;;;;;;;15.05;10.88;;;2.70;99.90;;;;;;6217727;23;20539;-83
2021/01/17 05:11:31;;;;;;;16.70;10.88;;;2.80;99.90;;;;;;6197231;23;20175;-84
2021/01/17 05:14:22;;;;;;;14.23;10.95;;;2.80;99.90;;;;;;6177878;23;20134;-83
2021/01/17 05:16:48;;;;;;;14.93;10.88;;;2.90;99.90;;;;;;6202602;23;20134;-83
2021/01/17 05:19:19;;;;;;;15.40;12.10;;;2.90;99.90;;;;;;6224068;23;20187;-83
2021/01/17 05:21:49;;;;;;;16.33;12.50;;;3.00;99.90;;;;;;6222163;23;20141;-83
2021/01/17 05:24:16;;;;;;;19.38;12.93;;;3.00;99.90;;;;;;6199643;23;20149;-83
2021/01/17 05:26:54;;;;;;;18.33;13.10;;;3.00;99.90;;;;;;6220600;23;20176;-82
2021/01/17 05:29:21;;;;;;;15.73;11.85;;;2.90;99.90;;;;;;6191310;23;20231;-83
2021/01/17 05:32:06;;;;;;;17.08;11.90;;;3.00;99.90;;;;;;6191887;23;20188;-83
2021/01/17 05:34:33;;;;;;;16.05;11.40;;;3.00;99.90;;;;;;6190279;23;20199;-83
2021/01/17 05:37:10;;;;;;;17.08;11.05;;;3.00;99.90;;;;;;6214661;23;20145;-82
2021/01/17 05:40:04;;;;;;;17.98;11.93;;;3.00;99.90;;;;;;6189000;23;20161;-83
2021/01/17 05:42:39;;;;;;;18.55;13.30;;;3.00;99.90;;;;;;6164901;23;20152;-82
2021/01/17 05:45:12;;;;;;;14.35;11.50;;;3.00;99.90;;;;;;6213910;23;20602;-82
2021/01/17 05:47:39;;;;;;;17.08;12.52;;;3.00;99.90;;;;;;6192364;23;20153;-82
2021/01/17 05:50:13;;;;;;;17.63;11.15;;;2.90;99.90;;;;;;6191017;23;20556;-81
2021/01/17 05:52:39;;;;;;;17.33;12.85;;;2.90;99.90;;;;;;6216524;23;20141;-82
2021/01/17 05:55:06;;;;;;;19.55;13.23;;;2.90;99.90;;;;;;6188470;23;20149;-81
2021/01/17 05:57:33;;;;;;;16.70;11.15;;;3.00;99.90;;;;;;6187776;23;20182;-81
2021/01/17 06:00:01;;;;;;;15.88;11.80;;;3.00;99.90;;;;;;6214927;23;20169;-81
2021/01/17 06:02:40;;;;;;;16.13;11.77;;;3.00;99.90;;;;;;6215123;23;20129;-83
2021/01/17 06:05:10;;;;;;;15.57;11.48;;;3.00;99.90;;;;;;6216187;23;20557;-82
2021/01/17 06:07:38;;;;;;;23.65;15.38;;;3.00;99.90;;;;;;6141185;23;20537;-82
2021/01/17 06:10:06;;;;;;;23.77;14.32;;;3.00;99.90;;;;;;6191236;23;20169;-82
2021/01/17 06:12:37;;;;;;;20.55;13.80;;;3.00;99.90;;;;;;6189667;23;20149;-82
2021/01/17 06:15:06;;;;;;;18.67;13.23;;;3.00;99.90;;;;;;6164267;23;20477;-84
2021/01/17 06:17:34;;;;;;;20.45;13.82;;;3.00;99.90;;;;;;6213979;23;20153;-82
2021/01/17 06:20:02;;;;;;;24.65;17.20;;;3.00;99.90;;;;;;6162887;23;20189;-83
2021/01/17 06:22:29;;;;;;;20.50;14.43;;;3.00;99.90;;;;;;6187168;23;20149;-83
2021/01/17 06:25:00;;;;;;;26.13;16.75;;;2.90;99.90;;;;;;6216856;23;20173;-81
2021/01/17 06:27:29;;;;;;;19.98;12.88;;;2.90;99.90;;;;;;6187434;23;20468;-81
2021/01/17 06:29:55;;;;;;;21.90;15.20;;;2.90;99.90;;;;;;6186725;23;20161;-81
2021/01/17 06:32:24;;;;;;;16.58;11.82;;;3.00;99.90;;;;;;6212712;23;20149;-83
2021/01/17 06:34:53;;;;;;;23.02;13.98;;;3.00;99.90;;;;;;6186654;23;20149;-82
2021/01/17 06:37:21;;;;;;;22.65;13.43;;;3.00;99.90;;;;;;6161337;23;20161;-82
2021/01/17 06:39:55;;;;;;;18.80;13.80;;;3.00;99.90;;;;;;6136938;23;20236;-82
2021/01/17 06:42:22;;;;;;;18.35;14.00;;;2.90;99.90;;;;;;6186376;23;20145;-82
2021/01/17 06:44:49;;;;;;;19.75;14.63;;;2.90;99.90;;;;;;6213149;23;20504;-82
2021/01/17 06:47:21;;;;;;;15.38;12.05;;;2.90;99.90;;;;;;6212294;23;20167;-82
2021/01/17 06:49:48;;;;;;;22.85;12.40;;;2.90;99.90;;;;;;6213043;23;20600;-82
2021/01/17 06:52:16;;;;;;;17.33;12.57;;;2.90;99.90;;;;;;6186147;23;20149;-82
2021/01/17 06:54:45;;;;;;;21.63;15.15;;;2.90;99.90;;;;;;6186600;23;20145;-81
2021/01/17 06:57:11;;;;;;;21.10;14.82;;;2.90;99.90;;;;;;6162160;23;20152;-81
2021/01/17 06:59:42;;;;;;;19.63;15.05;;;2.90;99.90;;;;;;6186954;23;20501;-81
2021/01/17 07:02:17;;;;;;;22.40;14.77;;;2.80;99.90;;;;;;6189745;23;20169;-81
2021/01/17 07:05:07;;;;;;;23.17;14.93;;;2.80;99.90;;;;;;6212821;23;20125;-81
2021/01/17 07:08:05;;;;;;;20.75;13.35;;;2.80;99.90;;;;;;6191521;23;20136;-82
2021/01/17 07:11:05;;;;;;;18.80;13.32;;;2.80;99.90;;;;;;6217768;23;20165;-83
2021/01/17 07:13:34;;;;;;;23.02;15.93;;;2.70;99.90;;;;;;6191689;23;20584;-83
2021/01/17 07:16:02;;;;;;;22.02;14.60;;;2.70;99.90;;;;;;6192181;23;20149;-83
2021/01/17 07:18:36;;;;;;;20.13;14.80;;;2.70;99.90;;;;;;6165054;23;20145;-82
2021/01/17 07:21:03;;;;;;;15.73;12.75;;;2.70;99.90;;;;;;6218846;23;20141;-82
2021/01/17 07:23:30;;;;;;;21.33;15.32;;;2.70;99.90;;;;;;6219026;23;20141;-82
2021/01/17 07:26:00;;;;;;;16.70;13.20;;;2.70;99.90;;;;;;6190569;23;20568;-82
2021/01/17 07:28:33;;;;;;;15.20;12.02;;;2.80;99.90;;;;;;6188743;23;20133;-82
2021/01/17 07:30:59;;;;;;;17.75;12.80;;;2.80;99.90;;;;;;6188881;23;20145;-82
2021/01/17 07:33:36;;;;;;;17.70;13.20;;;2.90;99.90;;;;;;6188080;23;20148;-82
2021/01/17 07:36:07;;;;;;;18.95;15.25;;;2.90;99.90;;;;;;6213398;23;20831;-81
2021/01/17 07:38:35;;;;;;;20.77;13.43;;;2.90;99.90;;;;;;6188475;23;20145;-81
2021/01/17 07:41:06;;;;;;;21.17;14.35;;;2.90;99.90;;;;;;6187732;23;20477;-81
2021/01/17 07:43:45;;;;;;;19.85;14.43;;;3.00;99.90;;;;;;6186766;23;20237;-81
2021/01/17 07:46:12;;;;;;;20.35;14.15;;;2.90;99.90;;;;;;6160963;23;20172;-82
2021/01/17 07:48:40;;;;;;;19.95;14.95;;;2.90;99.90;;;;;;6212300;23;20559;-81
2021/01/17 07:51:11;;;;;;;23.35;14.73;;;2.90;99.90;;;;;;6161252;23;20163;-78
2021/01/17 07:53:36;;;;;;;22.38;16.58;;;2.90;99.90;;;;;;6190184;23;20172;-78
2021/01/17 07:56:11;;;;;;;19.60;13.60;;;2.90;99.90;;;;;;6194859;23;20148;-78
2021/01/17 07:58:44;;;;;;;20.50;14.68;;;2.90;99.90;;;;;;6211685;23;20572;-78
2021/01/17 08:01:35;;;;;;;18.60;13.63;;;2.90;99.90;;;;;;6160660;23;20180;-79
2021/01/17 08:04:04;;;;;;;14.60;11.23;;;2.90;99.90;;;;;;6212245;23;20173;-79
2021/01/17 08:06:35;;;;;;;16.10;12.10;;;3.00;99.90;;;;;;6212159;23;20169;-78
2021/01/17 08:09:08;;;;;;;21.20;14.88;;;3.10;99.90;;;;;;6211647;23;20504;-79
2021/01/17 08:11:47;;;;;;;17.33;11.50;;;3.10;99.90;;;;;;6211812;23;20175;-79
2021/01/17 08:14:27;;;;;;;18.55;13.23;;;3.20;99.90;;;;;;6212183;23;20152;-79
2021/01/17 08:17:10;;;;;;;18.50;12.82;;;3.20;99.90;;;;;;6216099;23;20460;-79
2021/01/17 08:19:45;;;;;;;20.23;13.85;;;3.30;99.90;;;;;;6211404;23;20206;-79
2021/01/17 08:22:53;;;;;;;;;;;;;;;;;;;;;
2021/01/17 09:08:17;;;;;;;;;;;;;;;;;;;;;
2021/01/17 09:12:32;;;;;;;;;;;;;;;;;;;;;
2021/01/17 09:16:41;;;;;;;;;;;;;;;;;;;;;
2021/01/17 10:06:55;;;;;;;;;;;;;;;;;;;;;
2021/01/17 10:53:57;;;;;;;24.27;15.95;;;3.80;99.90;;;;;;5826185;24;20598;-81
2021/01/17 11:11:29;;;;;;;;;;;;;;;;;;;;;
2021/01/17 16:05:40;;;;;;;22.40;16.15;;;6.60;99.90;;;;;;6046284;23;20188;31
